createdAt,value
2023-02-11T00:00:50.335Z,73.63
2023-02-11T00:03:23.211Z,73.50
2023-02-11T00:06:01.138Z,73.81
2023-02-11T00:08:33.677Z,74.12
2023-02-11T00:11:06.609Z,74.17
2023-02-11T00:13:39.492Z,73.99
2023-02-11T00:16:14.801Z,74.57
2023-02-11T00:18:47.320Z,74.37
2023-02-11T00:21:25.914Z,74.87
2023-02-11T00:24:00.143Z,74.63
2023-02-11T00:26:35.903Z,74.68
2023-02-11T00:29:09.099Z,74.88
2023-02-11T00:31:42.074Z,75.27
2023-02-11T00:34:14.971Z,75.05
2023-02-11T00:36:49.538Z,75.04
2023-02-11T00:39:21.915Z,75.32
2023-02-11T00:41:54.850Z,75.29
2023-02-11T00:44:27.162Z,75.24
2023-02-11T00:46:59.580Z,75.21
2023-02-11T00:49:32.098Z,75.33
2023-02-11T00:52:05.238Z,75.64
2023-02-11T00:54:38.620Z,75.94
2023-02-11T00:57:11.257Z,75.90
2023-02-11T00:59:43.760Z,76.43
2023-02-11T01:02:16.199Z,76.41
2023-02-11T01:04:48.827Z,76.73
2023-02-11T01:07:21.497Z,76.89
2023-02-11T01:09:53.981Z,76.79
2023-02-11T01:12:26.526Z,76.84
2023-02-11T01:14:59.592Z,77.04
2023-02-11T01:17:42.740Z,77.59
2023-02-11T01:20:25.127Z,78.17
2023-02-11T01:22:57.828Z,78.49
2023-02-11T01:25:30.264Z,78.38
2023-02-11T01:28:03.066Z,78.44
2023-02-11T01:30:35.649Z,78.31
2023-02-11T01:33:08.808Z,78.25
2023-02-11T01:35:42.336Z,78.61
2023-02-11T01:38:24.359Z,78.61
2023-02-11T01:41:06.898Z,78.97
2023-02-11T01:43:43.967Z,79.16
2023-02-11T01:46:35.240Z,79.20
2023-02-11T01:49:24.651Z,79.45
2023-02-11T01:52:04.728Z,79.34
2023-02-11T01:54:58.912Z,79.31
2023-02-11T01:57:33.577Z,79.47
2023-02-11T02:00:28.500Z,79.90
2023-02-11T02:03:20.315Z,80.03
2023-02-11T02:06:04.824Z,80.40
2023-02-11T02:08:51.866Z,80.69
2023-02-11T02:11:25.098Z,80.78
2023-02-11T02:13:57.681Z,81.07
2023-02-11T02:16:34.807Z,81.25
2023-02-11T02:19:36.102Z,81.37
2023-02-11T02:22:18.930Z,81.66
2023-02-11T02:25:31.081Z,81.89
2023-02-11T02:28:29.893Z,82.08
2023-02-11T02:31:18.891Z,82.24
2023-02-11T02:34:04.353Z,82.81
2023-02-11T02:36:54.780Z,82.89
2023-02-11T02:39:30.562Z,83.14
2023-02-11T02:42:04.144Z,83.37
2023-02-11T02:44:36.898Z,83.66
2023-02-11T02:47:10.129Z,83.72
2023-02-11T02:49:42.700Z,83.83
2023-02-11T02:52:53.788Z,84.08
2023-02-11T02:55:54.862Z,83.99
2023-02-11T02:58:38.502Z,84.26
2023-02-11T03:01:38.664Z,84.43
2023-02-11T03:04:48.896Z,84.71
2023-02-11T03:07:32.079Z,84.87
2023-02-11T03:10:15.481Z,85.14
2023-02-11T03:12:49.094Z,85.20
2023-02-11T03:15:21.542Z,85.22
2023-02-11T03:17:55.412Z,85.28
2023-02-11T03:20:27.826Z,85.35
2023-02-11T03:23:11.721Z,85.42
2023-02-11T03:25:54.194Z,85.27
2023-02-11T03:28:33.449Z,85.05
2023-02-11T03:31:19.114Z,84.99
2023-02-11T03:34:05.642Z,84.93
2023-02-11T03:36:46.257Z,84.79
2023-02-11T03:39:26.077Z,84.87
2023-02-11T03:41:59.058Z,84.83
2023-02-11T03:44:36.073Z,84.55
2023-02-11T03:47:11.454Z,84.56
2023-02-11T03:49:43.992Z,84.43
2023-02-11T03:52:16.698Z,84.28
2023-02-11T03:54:50.746Z,84.01
2023-02-11T03:57:23.122Z,83.79
2023-02-11T03:59:58.495Z,83.58
2023-02-11T04:02:35.091Z,83.46
2023-02-11T04:05:08.902Z,83.74
2023-02-11T04:07:41.371Z,83.40
2023-02-11T04:10:14.564Z,83.06
2023-02-11T04:12:48.232Z,83.12
2023-02-11T04:15:21.212Z,83.39
2023-02-11T04:17:53.826Z,83.07
2023-02-11T04:20:26.736Z,83.35
2023-02-11T04:22:59.246Z,83.29
2023-02-11T04:25:32.162Z,83.13
2023-02-11T04:28:04.895Z,83.36
2023-02-11T04:30:37.617Z,82.97
2023-02-11T04:33:10.425Z,82.90
2023-02-11T04:35:44.604Z,83.01
2023-02-11T04:38:17.889Z,82.71
2023-02-11T04:40:51.273Z,82.44
2023-02-11T04:43:23.789Z,82.71
2023-02-11T04:46:20.035Z,82.58
2023-02-11T04:48:53.694Z,82.57
2023-02-11T04:51:26.431Z,82.56
2023-02-11T04:54:00.637Z,82.65
2023-02-11T04:56:33.712Z,82.69
2023-02-11T04:59:06.194Z,82.56
2023-02-11T05:01:39.584Z,82.56
2023-02-11T05:04:12.647Z,82.70
2023-02-11T05:06:45.798Z,82.87
2023-02-11T05:09:18.895Z,83.13
2023-02-11T05:11:51.890Z,83.17
2023-02-11T05:14:24.262Z,83.36
2023-02-11T05:16:56.757Z,83.34
2023-02-11T05:19:29.620Z,83.51
2023-02-11T05:22:03.836Z,83.74
2023-02-11T05:24:37.523Z,83.87
2023-02-11T05:27:10.019Z,84.10
2023-02-11T05:29:42.700Z,84.29
2023-02-11T05:32:15.075Z,84.55
2023-02-11T05:34:47.751Z,85.01
2023-02-11T05:37:21.590Z,85.69
2023-02-11T05:39:53.954Z,85.82
2023-02-11T05:42:26.718Z,86.28
2023-02-11T05:44:59.375Z,86.23
2023-02-11T05:47:32.246Z,86.35
2023-02-11T05:50:05.771Z,86.31
2023-02-11T05:52:38.532Z,86.52
2023-02-11T05:55:11.430Z,86.60
2023-02-11T05:57:43.825Z,86.78
2023-02-11T06:00:17.397Z,86.92
2023-02-11T06:02:50.052Z,86.67
2023-02-11T06:05:22.730Z,86.60
2023-02-11T06:07:55.839Z,86.48
2023-02-11T06:10:29.756Z,86.48
2023-02-11T06:13:02.914Z,86.55
2023-02-11T06:15:35.434Z,86.20
2023-02-11T06:18:08.254Z,85.82
2023-02-11T06:20:41.718Z,85.39
2023-02-11T06:23:14.195Z,85.18
2023-02-11T06:26:04.272Z,85.14
2023-02-11T06:28:41.672Z,84.35
2023-02-11T06:31:12.547Z,84.29
2023-02-11T06:33:45.143Z,84.21
2023-02-11T06:36:19.577Z,84.28
2023-02-11T06:38:52.668Z,84.22
2023-02-11T06:41:25.600Z,83.70
2023-02-11T06:43:58.168Z,83.01
2023-02-11T06:46:30.840Z,82.62
2023-02-11T06:49:03.390Z,82.50
2023-02-11T06:51:36.206Z,82.05
2023-02-11T06:54:08.788Z,81.61
2023-02-11T06:56:42.891Z,81.39
2023-02-11T06:59:21.912Z,81.07
2023-02-11T07:01:54.582Z,81.13
2023-02-11T07:04:27.017Z,80.75
2023-02-11T07:06:59.683Z,80.46
2023-02-11T07:09:32.229Z,80.61
2023-02-11T07:12:27.337Z,80.89
2023-02-11T07:15:00.193Z,81.17
2023-02-11T07:17:32.935Z,81.31
2023-02-11T07:20:07.469Z,81.69
2023-02-11T07:22:40.422Z,81.97
2023-02-11T07:25:12.793Z,82.21
2023-02-11T07:27:45.853Z,82.34
2023-02-11T07:30:18.459Z,82.84
2023-02-11T07:32:50.904Z,83.59
2023-02-11T07:35:24.281Z,84.00
2023-02-11T07:37:57.185Z,84.15
2023-02-11T07:40:31.774Z,84.69
2023-02-11T07:43:04.456Z,85.13
2023-02-11T07:45:39.708Z,84.70
2023-02-11T07:48:12.035Z,84.82
2023-02-11T07:50:45.403Z,85.11
2023-02-11T07:53:17.947Z,85.33
2023-02-11T07:55:51.436Z,85.53
2023-02-11T07:58:24.298Z,85.75
2023-02-11T08:00:59.001Z,85.72
2023-02-11T08:03:31.839Z,85.24
2023-02-11T08:06:13.324Z,85.33
2023-02-11T08:08:45.712Z,84.93
2023-02-11T08:11:28.202Z,85.25
2023-02-11T08:14:00.581Z,85.28
2023-02-11T08:16:35.309Z,85.54
2023-02-11T08:19:14.775Z,85.43
2023-02-11T08:21:47.234Z,85.15
2023-02-11T08:24:19.854Z,85.10
2023-02-11T08:26:54.117Z,84.81
2023-02-11T08:29:26.593Z,84.37
2023-02-11T08:31:58.968Z,83.78
2023-02-11T08:34:31.600Z,83.65
2023-02-11T08:37:04.395Z,84.16
2023-02-11T08:39:36.979Z,84.17
2023-02-11T08:42:09.547Z,84.14
2023-02-11T08:44:43.989Z,84.15
2023-02-11T08:47:16.452Z,84.22
2023-02-11T08:49:49.079Z,84.62
2023-02-11T08:52:21.829Z,84.94
2023-02-11T08:54:54.362Z,84.98
2023-02-11T08:57:27.010Z,85.36
2023-02-11T08:59:59.615Z,85.44
2023-02-11T09:02:32.032Z,85.60
2023-02-11T09:05:04.561Z,85.36
2023-02-11T09:07:38.595Z,85.48
2023-02-11T09:10:12.107Z,85.41
2023-02-11T09:12:44.417Z,85.64
2023-02-11T09:15:16.883Z,85.73
2023-02-11T09:17:49.230Z,85.60
2023-02-11T09:20:22.290Z,85.48
2023-02-11T09:22:55.440Z,85.77
2023-02-11T09:25:27.783Z,86.09
2023-02-11T09:28:00.629Z,85.80
2023-02-11T09:30:33.937Z,85.55
2023-02-11T09:33:07.057Z,85.25
2023-02-11T09:35:43.754Z,85.75
2023-02-11T09:38:16.896Z,85.84
2023-02-11T09:40:49.799Z,85.66
2023-02-11T09:43:32.506Z,85.80
2023-02-11T09:46:05.971Z,85.73
2023-02-11T09:48:42.163Z,85.99
2023-02-11T09:51:27.604Z,86.11
2023-02-11T09:54:05.447Z,86.56
2023-02-11T09:56:37.192Z,87.06
2023-02-11T09:59:17.883Z,87.32
2023-02-11T10:02:01.238Z,87.60
2023-02-11T10:04:58.362Z,88.04
2023-02-11T10:07:42.463Z,88.20
2023-02-11T10:10:39.508Z,88.13
2023-02-11T10:13:32.570Z,88.26
2023-02-11T10:16:39.287Z,88.22
2023-02-11T10:19:31.124Z,88.34
2023-02-11T10:22:19.974Z,88.26
2023-02-11T10:24:57.942Z,87.68
2023-02-11T10:27:35.358Z,87.41
2023-02-11T10:30:22.034Z,87.41
2023-02-11T10:33:23.008Z,87.39
2023-02-11T10:35:55.328Z,87.36
2023-02-11T10:38:29.008Z,87.44
2023-02-11T10:41:01.317Z,87.18
2023-02-11T10:43:34.049Z,87.09
2023-02-11T10:46:07.132Z,87.12
2023-02-11T10:48:52.961Z,88.12
2023-02-11T10:51:37.745Z,88.46
2023-02-11T10:54:15.243Z,88.07
2023-02-11T10:56:53.542Z,87.76
2023-02-11T10:59:37.046Z,88.36
2023-02-11T11:02:28.232Z,88.84
2023-02-11T11:05:08.025Z,88.59
2023-02-11T11:07:40.690Z,88.55
2023-02-11T11:10:32.670Z,89.12
2023-02-11T11:13:05.705Z,88.96
2023-02-11T11:15:38.199Z,88.53
2023-02-11T11:18:23.322Z,89.04
2023-02-11T11:21:25.375Z,88.32
2023-02-11T11:24:00.816Z,88.13
2023-02-11T11:26:49.092Z,87.18
2023-02-11T11:29:34.697Z,87.56
2023-02-11T11:32:28.300Z,87.06
2023-02-11T11:35:12.976Z,87.28
2023-02-11T11:37:46.221Z,88.09
2023-02-11T11:40:26.676Z,89.02
2023-02-11T11:43:22.663Z,89.75
2023-02-11T11:45:59.580Z,89.63
2023-02-11T11:48:39.478Z,90.01
2023-02-11T11:51:12.769Z,90.22
2023-02-11T11:54:10.186Z,91.31
2023-02-11T11:56:50.287Z,91.03
2023-02-11T11:59:23.062Z,90.90
2023-02-11T12:02:32.889Z,90.08
2023-02-11T12:05:27.353Z,90.02
2023-02-11T12:08:24.839Z,89.88
2023-02-11T12:11:23.383Z,90.44
2023-02-11T12:14:20.174Z,91.06
2023-02-11T12:17:29.001Z,91.89
2023-02-11T12:20:33.722Z,91.51
2023-02-11T12:23:29.014Z,92.18
2023-02-11T12:26:23.306Z,92.29
2023-02-11T12:29:42.935Z,92.94
2023-02-11T12:32:36.567Z,92.48
2023-02-11T12:35:35.312Z,93.13
2023-02-11T12:38:14.913Z,92.19
2023-02-11T12:41:22.245Z,91.16
2023-02-11T12:43:54.828Z,90.76
2023-02-11T12:46:37.309Z,90.72
2023-02-11T12:49:23.159Z,90.54
2023-02-11T12:52:25.663Z,90.14
2023-02-11T12:55:05.995Z,89.94
2023-02-11T12:57:39.118Z,88.87
2023-02-11T13:00:22.261Z,88.75
2023-02-11T13:03:13.832Z,88.65
2023-02-11T13:05:55.332Z,89.25
2023-02-11T13:08:46.322Z,88.69
2023-02-11T13:11:36.092Z,88.36
2023-02-11T13:14:16.470Z,88.26
2023-02-11T13:16:51.217Z,87.49
2023-02-11T13:19:31.510Z,87.65
2023-02-11T13:22:18.585Z,88.24
2023-02-11T13:25:06.900Z,87.26
2023-02-11T13:28:11.103Z,86.71
2023-02-11T13:30:45.199Z,87.29
2023-02-11T13:33:21.152Z,86.87
2023-02-11T13:36:04.465Z,86.17
2023-02-11T13:38:36.019Z,86.29
2023-02-11T13:41:18.279Z,86.15
2023-02-11T13:44:20.720Z,86.04
2023-02-11T13:47:02.515Z,85.81
2023-02-11T13:49:44.049Z,85.63
2023-02-11T13:52:33.955Z,85.52
2023-02-11T13:55:17.262Z,85.87
2023-02-11T13:58:17.617Z,85.96
2023-02-11T14:00:52.205Z,85.02
2023-02-11T14:03:48.558Z,84.51
2023-02-11T14:06:41.340Z,84.36
2023-02-11T14:09:21.610Z,83.65
2023-02-11T14:11:58.280Z,83.62
2023-02-11T14:14:33.597Z,82.54
2023-02-11T14:17:14.718Z,82.65
2023-02-11T14:19:49.454Z,82.05
2023-02-11T14:22:31.895Z,82.06
2023-02-11T14:25:05.918Z,82.47
2023-02-11T14:27:47.685Z,82.19
2023-02-11T14:30:36.563Z,81.31
2023-02-11T14:33:42.603Z,81.41
2023-02-11T14:36:54.627Z,81.47
2023-02-11T14:40:04.965Z,81.11
2023-02-11T14:42:38.051Z,80.81
2023-02-11T14:45:12.688Z,81.21
2023-02-11T14:48:02.876Z,81.06
2023-02-11T14:50:53.939Z,81.08
2023-02-11T14:53:27.171Z,81.26
2023-02-11T14:55:59.900Z,81.89
2023-02-11T14:58:34.573Z,82.87
2023-02-11T15:01:10.650Z,82.58
2023-02-11T15:03:47.109Z,81.63
2023-02-11T15:06:49.832Z,81.81
2023-02-11T15:09:26.335Z,81.63
2023-02-11T15:11:59.839Z,81.60
2023-02-11T15:14:55.511Z,82.05
2023-02-11T15:17:31.876Z,81.01
2023-02-11T15:20:04.388Z,81.63
2023-02-11T15:22:39.825Z,80.78
2023-02-11T15:25:16.864Z,80.65
2023-02-11T15:27:53.034Z,80.30
2023-02-11T15:30:32.245Z,80.62
2023-02-11T15:33:06.928Z,79.91
2023-02-11T15:35:42.916Z,80.59
2023-02-11T15:38:15.630Z,81.84
2023-02-11T15:40:58.585Z,83.02
2023-02-11T15:43:48.684Z,80.03
2023-02-11T15:46:42.216Z,79.63
2023-02-11T15:49:17.736Z,79.46
2023-02-11T15:51:50.805Z,78.74
2023-02-11T15:54:26.920Z,77.65
2023-02-11T15:57:08.161Z,77.00
2023-02-11T15:59:42.494Z,77.71
2023-02-11T16:02:32.125Z,77.52
2023-02-11T16:05:09.746Z,76.75
2023-02-11T16:07:53.142Z,75.93
2023-02-11T16:10:36.536Z,74.50
2023-02-11T16:13:14.066Z,73.96
2023-02-11T16:15:54.501Z,72.98
2023-02-11T16:18:40.439Z,73.38
2023-02-11T16:21:19.730Z,72.58
2023-02-11T16:23:57.746Z,72.40
2023-02-11T16:26:37.382Z,72.39
2023-02-11T16:29:22.278Z,72.09
2023-02-11T16:31:57.879Z,71.93
2023-02-11T16:34:30.446Z,71.82
2023-02-11T16:37:06.026Z,71.45
2023-02-11T16:39:38.509Z,71.52
2023-02-11T16:42:13.012Z,71.72
2023-02-11T16:44:45.586Z,72.05
2023-02-11T16:47:28.634Z,72.29
2023-02-11T16:50:01.444Z,72.41
2023-02-11T16:52:34.696Z,72.74
2023-02-11T16:55:08.793Z,73.20
2023-02-11T16:57:41.405Z,73.25
2023-02-11T17:00:17.134Z,73.30
2023-02-11T17:02:49.768Z,73.56
2023-02-11T17:05:25.312Z,72.99
2023-02-11T17:07:58.469Z,72.75
2023-02-11T17:10:30.991Z,72.80
2023-02-11T17:13:05.251Z,72.70
2023-02-11T17:15:37.967Z,72.71
2023-02-11T17:18:16.193Z,72.61
2023-02-11T17:20:48.620Z,72.08
2023-02-11T17:23:21.294Z,72.36
2023-02-11T17:25:57.997Z,72.29
2023-02-11T17:28:30.449Z,72.54
2023-02-11T17:31:03.465Z,71.77
2023-02-11T17:33:36.371Z,71.82
2023-02-11T17:36:09.933Z,71.48
2023-02-11T17:38:42.699Z,71.50
2023-02-11T17:41:15.101Z,71.55
2023-02-11T17:43:47.649Z,71.61
2023-02-11T17:46:24.616Z,71.96
2023-02-11T17:48:59.070Z,71.71
2023-02-11T17:51:34.753Z,71.86
2023-02-11T17:54:11.594Z,71.57
2023-02-11T17:56:44.274Z,72.27
2023-02-11T17:59:16.742Z,71.95
2023-02-11T18:01:49.471Z,71.86
2023-02-11T18:04:22.688Z,71.79
2023-02-11T18:07:07.554Z,71.87
2023-02-11T18:09:42.288Z,72.17
2023-02-11T18:12:17.213Z,72.09
2023-02-11T18:14:49.618Z,72.27
2023-02-11T18:17:43.797Z,72.67
2023-02-11T18:20:16.595Z,72.75
2023-02-11T18:22:48.955Z,72.80
2023-02-11T18:25:21.619Z,73.15
2023-02-11T18:27:54.947Z,73.60
2023-02-11T18:30:28.867Z,73.68
2023-02-11T18:33:01.287Z,73.81
2023-02-11T18:35:34.616Z,73.45
2023-02-11T18:38:07.084Z,73.82
2023-02-11T18:40:42.834Z,73.81
2023-02-11T18:43:16.349Z,74.26
2023-02-11T18:45:49.314Z,74.54
2023-02-11T18:48:22.566Z,74.81
2023-02-11T18:50:55.435Z,74.87
2023-02-11T18:53:27.806Z,75.16
2023-02-11T18:56:01.379Z,75.59
2023-02-11T18:58:35.238Z,75.76
2023-02-11T19:01:22.916Z,76.30
2023-02-11T19:03:58.682Z,77.23
2023-02-11T19:06:35.541Z,78.74
2023-02-11T19:09:12.901Z,79.33
2023-02-11T19:11:50.205Z,79.48
2023-02-11T19:14:31.571Z,79.75
2023-02-11T19:17:25.048Z,79.92
2023-02-11T19:19:57.490Z,80.35
2023-02-11T19:22:30.032Z,81.06
2023-02-11T19:25:02.370Z,81.50
2023-02-11T19:27:35.491Z,82.36
2023-02-11T19:30:10.040Z,82.80
2023-02-11T19:32:43.161Z,82.89
2023-02-11T19:35:15.758Z,83.36
2023-02-11T19:37:48.191Z,83.88
2023-02-11T19:40:21.491Z,85.14
2023-02-11T19:42:55.314Z,85.33
2023-02-11T19:45:28.610Z,85.79
2023-02-11T19:48:01.133Z,87.35
2023-02-11T19:50:34.170Z,87.68
2023-02-11T19:53:07.306Z,87.97
2023-02-11T19:55:46.751Z,88.70
2023-02-11T19:58:19.289Z,89.20
2023-02-11T20:00:51.856Z,89.36
2023-02-11T20:03:24.949Z,89.83
2023-02-11T20:05:57.710Z,90.18
2023-02-11T20:08:30.886Z,90.46
2023-02-11T20:11:19.941Z,90.91
2023-02-11T20:13:53.057Z,91.72
2023-02-11T20:16:41.020Z,91.77
2023-02-11T20:19:01.928Z,92.06
2023-02-11T20:21:34.820Z,92.33
2023-02-11T20:24:07.357Z,93.19
2023-02-11T20:26:42.637Z,94.06
2023-02-11T20:29:14.457Z,95.21
2023-02-11T20:31:47.030Z,95.53
2023-02-11T20:34:21.423Z,96.09
2023-02-11T20:36:54.985Z,96.50
2023-02-11T20:39:28.354Z,96.71
2023-02-11T20:42:00.833Z,96.99
2023-02-11T20:44:35.470Z,97.55
2023-02-11T20:47:08.401Z,98.80
2023-02-11T20:49:40.809Z,98.61
2023-02-11T20:52:14.002Z,99.77
2023-02-11T20:54:47.293Z,100.00
2023-02-11T20:57:31.062Z,100.00
2023-02-11T21:00:03.539Z,100.00
2023-02-11T21:02:36.021Z,100.00
2023-02-11T21:05:08.849Z,100.00
2023-02-11T21:07:42.590Z,100.00
2023-02-11T21:10:15.247Z,100.00
2023-02-11T21:12:49.929Z,100.00
2023-02-11T21:15:23.641Z,100.00
2023-02-11T21:17:56.482Z,100.00
2023-02-11T21:20:28.979Z,100.00
2023-02-11T21:23:01.986Z,100.00
2023-02-11T21:25:35.015Z,100.00
2023-02-11T21:28:07.502Z,100.00
2023-02-11T21:30:41.204Z,100.00
2023-02-11T21:33:14.714Z,100.00
2023-02-11T21:35:47.452Z,100.00
2023-02-11T21:38:20.024Z,100.00
2023-02-11T21:40:52.379Z,100.00
2023-02-11T21:43:25.105Z,100.00
2023-02-11T21:45:57.600Z,100.00
2023-02-11T21:48:30.179Z,100.00
2023-02-11T21:51:12.563Z,100.00
2023-02-11T21:53:45.043Z,100.00
2023-02-11T21:56:19.217Z,100.00
2023-02-11T21:58:54.217Z,100.00
2023-02-11T22:01:33.314Z,100.00
2023-02-11T22:04:06.018Z,100.00
2023-02-11T22:06:39.048Z,100.00
2023-02-11T22:09:12.148Z,100.00
2023-02-11T22:11:45.403Z,100.00
2023-02-11T22:14:19.180Z,100.00
2023-02-11T22:16:52.101Z,100.00
2023-02-11T22:19:25.155Z,100.00
2023-02-11T22:21:58.076Z,100.00
2023-02-11T22:24:31.875Z,100.00
2023-02-11T22:27:05.089Z,100.00
2023-02-11T22:29:38.434Z,100.00
2023-02-11T22:32:10.704Z,100.00
2023-02-11T22:34:44.097Z,100.00
2023-02-11T22:37:16.952Z,100.00
2023-02-11T22:39:49.614Z,100.00
2023-02-11T22:42:23.055Z,100.00
2023-02-11T22:44:55.489Z,100.00
2023-02-11T22:47:39.078Z,100.00
2023-02-11T22:50:12.005Z,100.00
2023-02-11T22:52:45.052Z,100.00
2023-02-11T22:55:17.579Z,100.00
2023-02-11T22:57:50.714Z,100.00
2023-02-11T23:00:23.164Z,100.00
2023-02-11T23:02:56.841Z,100.00
2023-02-11T23:05:29.580Z,100.00
2023-02-11T23:08:02.096Z,100.00
2023-02-11T23:10:36.456Z,100.00
2023-02-11T23:13:10.618Z,100.00
2023-02-11T23:15:45.486Z,100.00
2023-02-11T23:18:18.035Z,100.00
2023-02-11T23:20:50.503Z,100.00
2023-02-11T23:23:23.078Z,100.00
2023-02-11T23:25:56.129Z,100.00
2023-02-11T23:28:29.770Z,100.00
2023-02-11T23:31:02.436Z,100.00
2023-02-11T23:33:34.967Z,100.00
2023-02-11T23:36:08.675Z,100.00
2023-02-11T23:38:41.716Z,100.00
2023-02-11T23:41:14.608Z,100.00
2023-02-11T23:44:03.078Z,100.00
2023-02-11T23:46:35.633Z,100.00
2023-02-11T23:49:08.239Z,100.00
2023-02-11T23:51:41.303Z,100.00
2023-02-11T23:54:15.029Z,100.00
2023-02-11T23:56:47.516Z,100.00
2023-02-11T23:59:20.037Z,100.00
